Terminal Aerodrome Forecast
Issued by NWS

Home | Current Version | Previous Version | Text Only | Print | Product List | Glossary Off
Versions: 1 2 3 4 5 6 7 8 9 10 11 12

000
FTUS45 KGGW 181728
TAFSDY
TAF
KSDY 181728Z 1818/1918 28015G25KT P6SM FEW200
     FM190000 25008KT P6SM FEW200
     FM190500 19006KT P6SM BKN150
     FM191700 20010KT P6SM FEW200=

USA.gov is the U.S. government's official web portal to all federal, state and local government web resources and services.